Covesville, Virginia
Current Conditions -  °F | °C
As of 10:35 PM on Friday 24 Oct 2014 (Local Time) from KW13 Reporting Station
Clear Clear  
Wind Chill: 42°   Ceiling: Unl
Heat Index: 45°   Visibility: 10mi
Dew Point: 38°   Wind: 6mph
Humidity: 77%   Direction: 280°W
Pressure: 30"   Gusts: NA
Location:  37.89°N, 78.7°W
Report Text: KW13 250235Z AUTO 28005KT 10SM CLR 07/03 A3000 RMK AO1 T00720034
Loading
Personal Weather Stations






























Interactive Weather Map
Tropical Storm Tracking
New forecast layout! Learn more

10-Day Weather Forecast

Advertisements
Track Severe Weather on mobile